Time;durP1;ratioP1;P1;durP2;ratioP2;P2;SDS_P1;SDS_P2;PMS_P1;PMS_P2;Temp;Humidity;BMP_temperature;BMP_pressure;BME280_temperature;BME280_humidity;BME280_pressure;Samples;Min_cycle;Max_cycle;Signal;HPM_P1;HPM_P2
2022/10/03 00:00:08;;;;;;;7.97;6.63;;;;;;;5.49;100.00;97634.13;4974124;28;20279;-54
2022/10/03 00:03:02;;;;;;;6.10;5.70;;;;;;;5.39;100.00;97643.81;4975015;28;20208;-53
2022/10/03 00:05:40;;;;;;;6.53;6.03;;;;;;;5.38;100.00;97641.34;4959768;28;20373;-52
2022/10/03 00:08:17;;;;;;;6.17;5.70;;;;;;;5.31;100.00;97644.53;4971895;28;20204;-54
2022/10/03 00:10:57;;;;;;;6.50;6.00;;;;;;;5.32;100.00;97642.72;4974340;28;20200;-55
2022/10/03 00:13:32;;;;;;;6.60;6.10;;;;;;;5.34;100.00;97639.00;4974412;28;20325;-50
2022/10/03 00:16:08;;;;;;;7.10;6.50;;;;;;;5.32;100.00;97638.28;4972445;28;20227;-50
2022/10/03 00:18:48;;;;;;;9.17;6.53;;;;;;;5.36;100.00;97646.72;4973840;28;20231;-48
2022/10/03 00:21:26;;;;;;;6.93;6.23;;;;;;;5.45;100.00;97640.63;4973478;28;20204;-53
2022/10/03 00:24:02;;;;;;;7.00;6.30;;;;;;;5.48;100.00;97656.09;4973848;28;20200;-50
2022/10/03 00:26:38;;;;;;;8.30;7.47;;;;;;;5.47;100.00;97653.63;4974486;28;20211;-54
2022/10/03 00:29:39;;;;;;;6.67;6.07;;;;;;;5.46;100.00;97658.03;4973767;28;20204;-54
2022/10/03 00:32:18;;;;;;;7.70;7.03;;;;;;;5.44;100.00;97657.34;4972061;28;20238;-52
2022/10/03 00:35:07;;;;;;;6.97;5.77;;;;;;;5.39;100.00;97656.13;4973081;28;20232;-53
2022/10/03 00:37:37;;;;;;;6.70;6.00;;;;;;;5.34;100.00;97657.38;4973262;28;20201;-53
2022/10/03 00:40:38;;;;;;;7.53;6.73;;;;;;;5.36;100.00;97671.22;4974462;28;20231;-54
2022/10/03 00:43:42;;;;;;;7.50;6.23;;;;;;;5.30;100.00;97671.78;4972946;28;20209;-50
2022/10/03 00:46:36;;;;;;;6.43;5.90;;;;;;;5.24;100.00;97664.41;4968670;28;20239;-51
2022/10/03 00:49:26;;;;;;;6.33;5.73;;;;;;;5.20;100.00;97671.75;4972661;28;20209;-49
2022/10/03 00:52:03;;;;;;;6.23;5.73;;;;;;;5.23;100.00;97673.25;4972519;28;20215;-52
2022/10/03 00:54:44;;;;;;;6.73;6.23;;;;;;;5.36;100.00;97683.50;4973819;28;20238;-55
2022/10/03 00:57:23;;;;;;;6.83;6.33;;;;;;;5.42;100.00;97679.50;4972099;28;20211;-55
2022/10/03 01:00:05;;;;;;;7.20;6.60;;;;;;;5.41;100.00;97681.28;4978782;28;20236;-53
2022/10/03 01:02:47;;;;;;;7.50;6.90;;;;;;;5.36;100.00;97681.72;4974543;28;20201;-52
2022/10/03 01:05:24;;;;;;;8.37;7.43;;;;;;;5.39;100.00;97685.84;4973861;28;20224;-49
2022/10/03 01:08:19;;;;;;;8.30;7.57;;;;;;;5.37;100.00;97679.91;4972551;28;20203;-53
2022/10/03 01:10:53;;;;;;;7.60;6.90;;;;;;;5.35;100.00;97681.84;4940225;28;20211;-54
2022/10/03 01:13:32;;;;;;;7.27;6.67;;;;;;;5.32;100.00;97685.59;4972089;28;22426;-55
2022/10/03 01:16:11;;;;;;;8.17;7.40;;;;;;;5.30;100.00;97692.78;4973833;28;20236;-51
2022/10/03 01:18:51;;;;;;;7.43;6.80;;;;;;;5.27;100.00;97693.03;4972338;28;21019;-49
2022/10/03 01:21:29;;;;;;;6.97;6.43;;;;;;;5.25;100.00;97688.91;4973299;28;20208;-53
2022/10/03 01:24:19;;;;;;;6.73;6.23;;;;;;;5.12;100.00;97684.75;4973556;28;21100;-55
2022/10/03 01:26:56;;;;;;;8.03;6.70;;;;;;;5.10;100.00;97691.91;4971787;28;20208;-49
2022/10/03 01:32:30;;;;;;;7.57;6.93;;;;;;;5.06;100.00;97687.91;4975205;28;20208;-54
2022/10/03 01:35:07;;;;;;;6.73;6.23;;;;;;;5.15;100.00;97684.47;4973254;28;20862;-52
2022/10/03 01:37:41;;;;;;;8.10;7.20;;;;;;;5.21;100.00;97683.94;4975422;28;20670;-50
2022/10/03 01:40:16;;;;;;;7.23;6.33;;;;;;;5.18;100.00;97686.84;4977651;28;20227;-54
2022/10/03 01:42:56;;;;;;;7.20;6.50;;;;;;;5.14;100.00;97690.69;4978132;28;20199;-52
2022/10/03 01:45:29;;;;;;;7.40;6.77;;;;;;;5.12;100.00;97695.25;4977728;28;20277;-48
2022/10/03 01:48:01;;;;;;;7.53;6.90;;;;;;;5.11;100.00;97703.25;4977225;28;20729;-54
2022/10/03 01:50:35;;;;;;;7.60;6.90;;;;;;;5.09;100.00;97702.56;4977099;28;20212;-54
2022/10/03 01:53:07;;;;;;;7.53;6.93;;;;;;;5.04;100.00;97710.84;4978712;28;20207;-51
2022/10/03 01:55:49;;;;;;;8.57;6.93;;;;;;;5.06;100.00;97706.28;4978447;28;20682;-52
2022/10/03 01:58:25;;;;;;;9.50;7.60;;;;;;;5.08;100.00;97712.25;4974371;28;20714;-49
2022/10/03 02:00:59;;;;;;;7.43;6.73;;;;;;;4.99;100.00;97710.44;4977649;28;20240;-49
2022/10/03 02:03:30;;;;;;;9.10;8.27;;;;;;;4.94;100.00;97724.00;4976843;28;20968;-48
2022/10/03 02:06:03;;;;;;;7.90;7.20;;;;;;;4.96;100.00;97723.84;4977909;28;20270;-50
2022/10/03 02:08:41;;;;;;;8.97;8.17;;;;;;;4.91;100.00;97719.81;4976727;28;20212;-51
2022/10/03 02:11:11;;;;;;;8.73;7.57;;;;;;;4.83;100.00;97716.19;4977839;28;20196;-51
2022/10/03 02:13:44;;;;;;;7.70;7.10;;;;;;;4.75;100.00;97711.63;4977675;28;20227;-51
2022/10/03 02:16:21;;;;;;;8.00;7.30;;;;;;;4.72;100.00;97722.38;4976378;28;20220;-47
2022/10/03 02:18:52;;;;;;;6.73;6.23;;;;;;;4.77;100.00;97730.72;4977191;28;20291;-50
2022/10/03 02:21:22;;;;;;;6.97;6.37;;;;;;;4.75;100.00;97724.78;4977411;28;20216;-54
2022/10/03 02:24:05;;;;;;;7.43;6.93;;;;;;;4.70;100.00;97727.78;4978600;28;20223;-50
2022/10/03 02:27:06;;;;;;;8.10;7.50;;;;;;;4.60;100.00;97730.38;4976827;28;20204;-52
2022/10/03 02:30:03;;;;;;;7.70;6.77;;;;;;;4.55;100.00;97726.50;4976587;28;20202;-54
2022/10/03 02:33:18;;;;;;;7.70;5.77;;;;;;;4.47;100.00;97733.22;4975274;28;20215;-55
2022/10/03 02:36:08;;;;;;;7.20;6.63;;;;;;;4.46;100.00;97733.34;4913618;28;21019;-50
2022/10/03 02:38:58;;;;;;;8.10;6.97;;;;;;;4.43;100.00;97736.25;4913934;28;20206;-52
2022/10/03 02:41:42;;;;;;;6.73;6.13;;;;;;;4.43;100.00;97737.06;4913622;28;20797;-50
2022/10/03 02:44:22;;;;;;;7.13;6.53;;;;;;;4.45;100.00;97745.63;4914120;28;20233;-50
2022/10/03 02:47:22;;;;;;;8.40;6.87;;;;;;;4.55;100.00;97747.50;4914985;28;22864;-51
2022/10/03 02:50:30;;;;;;;7.13;6.43;;;;;;;4.66;100.00;97743.91;4913965;28;20353;-54
2022/10/03 02:53:47;;;;;;;9.03;7.07;;;;;;;4.80;100.00;97751.44;4914182;28;20214;-53
2022/10/03 02:56:33;;;;;;;6.90;6.40;;;;;;;4.91;100.00;97755.75;4909920;28;20226;-49
2022/10/03 02:59:43;;;;;;;10.03;7.27;;;;;;;5.06;100.00;97770.19;4911926;28;20217;-54
2022/10/03 03:02:40;;;;;;;7.07;6.37;;;;;;;5.20;100.00;97771.59;4903073;28;20214;-55
2022/10/03 03:05:36;;;;;;;7.50;6.80;;;;;;;5.25;100.00;97765.91;4912108;28;20226;-52
2022/10/03 03:08:37;;;;;;;7.47;6.87;;;;;;;5.36;100.00;97770.22;4911377;28;20207;-52
2022/10/03 03:11:17;;;;;;;7.47;6.87;;;;;;;5.45;100.00;97766.75;4965396;28;20205;-50
2022/10/03 03:14:08;;;;;;;6.97;6.37;;;;;;;5.52;100.00;97774.13;4977442;28;20214;-51
2022/10/03 03:16:56;;;;;;;6.67;6.27;;;;;;;5.48;100.00;97769.13;4966141;28;20211;-49
2022/10/03 03:19:42;;;;;;;7.30;6.80;;;;;;;5.49;100.00;97773.44;4975353;28;20208;-48
2022/10/03 03:22:26;;;;;;;7.50;6.90;;;;;;;5.51;100.00;97778.53;4977245;28;20212;-52
2022/10/03 03:25:06;;;;;;;6.47;6.07;;;;;;;5.57;100.00;97772.72;4976033;28;20321;-51
2022/10/03 03:27:41;;;;;;;7.70;7.10;;;;;;;5.61;100.00;97779.38;4974693;28;20204;-54
2022/10/03 03:30:11;;;;;;;6.40;5.90;;;;;;;5.74;100.00;97784.34;4975957;28;20211;-57
2022/10/03 03:32:50;;;;;;;7.60;6.83;;;;;;;5.76;100.00;97774.53;4976338;28;21369;-48
2022/10/03 03:35:27;;;;;;;7.47;6.90;;;;;;;5.74;100.00;97786.16;4976089;28;20240;-53
2022/10/03 03:38:07;;;;;;;7.53;6.83;;;;;;;5.69;100.00;97786.56;4973753;28;20223;-49
2022/10/03 03:40:40;;;;;;;6.00;5.60;;;;;;;5.67;100.00;97795.56;4976209;28;21881;-47
2022/10/03 03:43:25;;;;;;;7.67;6.87;;;;;;;5.66;100.00;97794.75;4968054;28;20209;-49
2022/10/03 03:46:03;;;;;;;8.77;7.10;;;;;;;5.70;100.00;97806.63;4970994;28;20236;-51
2022/10/03 03:48:49;;;;;;;7.50;6.67;;;;;;;5.71;100.00;97808.31;4948387;28;20204;-49
2022/10/03 03:51:23;;;;;;;7.07;6.50;;;;;;;5.70;100.00;97805.81;4970776;28;20199;-52
2022/10/03 03:54:25;;;;;;;10.07;8.70;;;;;;;5.70;100.00;97805.81;4971090;28;20707;-53
2022/10/03 03:57:13;;;;;;;8.23;7.53;;;;;;;5.75;100.00;97800.97;4969106;28;20326;-51
2022/10/03 04:00:12;;;;;;;7.30;6.63;;;;;;;5.76;100.00;97807.91;4930991;28;20213;-52
2022/10/03 04:03:03;;;;;;;6.33;5.93;;;;;;;5.80;100.00;97807.47;4969898;28;20454;-50
2022/10/03 04:05:42;;;;;;;5.70;5.30;;;;;;;5.84;100.00;97802.78;4968393;28;20220;-54
2022/10/03 04:08:30;;;;;;;5.90;5.50;;;;;;;5.85;100.00;97800.97;4969330;28;21277;-51
2022/10/03 04:11:12;;;;;;;6.50;6.00;;;;;;;5.92;100.00;97804.72;4971140;28;20207;-51
2022/10/03 04:13:55;;;;;;;6.70;6.10;;;;;;;5.91;100.00;97803.88;4969542;28;20211;-52
2022/10/03 04:19:33;;;;;;;6.03;5.37;;;;;;;5.74;100.00;97805.41;4967388;28;20207;-55
2022/10/03 04:22:22;;;;;;;7.17;6.50;;;;;;;5.67;100.00;97806.91;4972104;28;21713;-47
2022/10/03 04:25:16;;;;;;;6.27;5.77;;;;;;;5.60;100.00;97811.06;4970745;28;20223;-49
2022/10/03 04:28:06;;;;;;;6.07;5.67;;;;;;;5.62;100.00;97804.69;4968259;28;20843;-52
2022/10/03 04:30:42;;;;;;;6.70;6.10;;;;;;;5.64;100.00;97808.00;4931014;28;20647;-47
2022/10/03 04:33:25;;;;;;;9.33;6.10;;;;;;;5.69;100.00;97806.78;4969034;28;20215;-54
2022/10/03 04:36:26;;;;;;;5.90;5.40;;;;;;;5.80;100.00;97807.47;4971149;28;20239;-49
2022/10/03 04:39:01;;;;;;;6.00;5.60;;;;;;;5.80;100.00;97809.28;4969733;28;20203;-50
2022/10/03 04:41:38;;;;;;;6.57;5.53;;;;;;;5.87;100.00;97810.38;4966897;28;21290;-50
2022/10/03 04:44:26;;;;;;;8.00;5.97;;;;;;;5.91;100.00;97808.31;4965709;28;20299;-53
2022/10/03 04:46:56;;;;;;;7.60;7.00;;;;;;;6.06;100.00;97814.00;4967682;28;21413;-50
2022/10/03 04:49:31;;;;;;;8.50;7.83;;;;;;;6.10;100.00;97817.19;4966703;28;20208;-52
2022/10/03 04:52:02;;;;;;;8.90;8.20;;;;;;;6.16;100.00;97821.88;4969375;28;20203;-53
2022/10/03 04:54:42;;;;;;;9.20;8.33;;;;;;;6.21;100.00;97815.25;4968553;28;20232;-53
2022/10/03 04:57:20;;;;;;;7.67;7.07;;;;;;;6.25;100.00;97809.69;4950095;28;20204;-52
2022/10/03 04:59:54;;;;;;;7.13;6.53;;;;;;;6.26;100.00;97804.31;4970415;28;20208;-51
2022/10/03 05:02:33;;;;;;;7.93;7.23;;;;;;;6.28;100.00;97805.00;4902117;28;20228;-54
2022/10/03 05:05:25;;;;;;;7.87;7.17;;;;;;;6.26;100.00;97806.94;4970787;28;20234;-50
2022/10/03 05:08:00;;;;;;;8.97;8.20;;;;;;;6.22;100.00;97808.16;4967649;28;20205;-50
2022/10/03 05:10:47;;;;;;;8.60;7.77;;;;;;;6.22;100.00;97813.44;4966434;28;20208;-51
2022/10/03 05:13:20;;;;;;;7.93;7.20;;;;;;;6.24;100.00;97819.38;4969882;28;20258;-51
2022/10/03 05:16:00;;;;;;;11.83;8.70;;;;;;;6.26;100.00;97819.25;4924310;28;20227;-52
2022/10/03 05:18:34;;;;;;;11.80;9.40;;;;;;;6.35;100.00;97828.94;4943795;28;20208;-47
2022/10/03 05:21:09;;;;;;;12.57;9.00;;;;;;;6.35;100.00;97813.13;4969567;28;20224;-53
2022/10/03 05:23:51;;;;;;;9.10;8.20;;;;;;;6.43;100.00;97822.97;4970252;28;20216;-52
2022/10/03 05:26:27;;;;;;;11.33;7.83;;;;;;;6.44;100.00;97825.47;4968546;28;20196;-49
2022/10/03 05:29:21;;;;;;;8.80;8.00;;;;;;;6.50;100.00;97826.69;4969230;28;20679;-49
2022/10/03 05:31:59;;;;;;;10.47;9.47;;;;;;;6.56;100.00;97835.81;4927334;28;20841;-49
2022/10/03 05:34:34;;;;;;;18.40;15.40;;;;;;;6.62;100.00;97832.63;4921986;28;20242;-49
2022/10/03 05:37:20;;;;;;;15.17;13.57;;;;;;;6.65;100.00;97841.06;4965063;28;20204;-52
2022/10/03 05:39:56;;;;;;;11.97;10.70;;;;;;;6.73;100.00;97842.16;4968900;28;20211;-53
2022/10/03 05:42:36;;;;;;;9.80;8.90;;;;;;;6.77;100.00;97840.91;4970871;28;20227;-50
2022/10/03 05:45:06;;;;;;;8.33;7.63;;;;;;;6.82;100.00;97843.91;4967815;28;20700;-53
2022/10/03 05:47:48;;;;;;;8.77;8.07;;;;;;;6.89;100.00;97842.38;4925315;28;20213;-50
2022/10/03 05:50:35;;;;;;;8.93;8.00;;;;;;;6.99;100.00;97846.75;4963964;28;20671;-47
2022/10/03 05:53:26;;;;;;;11.83;8.13;;;;;;;7.06;100.00;97846.03;4893469;28;20216;-52
2022/10/03 05:56:05;;;;;;;11.30;9.87;;;;;;;7.17;100.00;97850.31;4971202;28;20220;-49
2022/10/03 05:58:57;;;;;;;10.87;9.80;;;;;;;7.24;100.00;97848.75;4947714;28;20224;-53
2022/10/03 06:01:57;;;;;;;11.57;10.43;;;;;;;7.34;100.00;97850.50;4967601;28;20228;-50
2022/10/03 06:05:17;;;;;;;12.47;9.70;;;;;;;7.40;100.00;97860.47;4969266;28;20342;-51
2022/10/03 06:08:06;;;;;;;9.63;8.63;;;;;;;7.46;100.00;97864.31;4822924;29;20231;-50
2022/10/03 06:10:44;;;;;;;10.13;9.10;;;;;;;7.55;100.00;97868.69;4865170;29;20930;-52
2022/10/03 06:13:19;;;;;;;13.20;11.73;;;;;;;7.60;100.00;97873.53;4840480;29;20211;-49
2022/10/03 06:15:54;;;;;;;14.90;11.20;;;;;;;7.68;100.00;97866.53;4867141;29;20220;-51
2022/10/03 06:18:52;;;;;;;10.83;9.73;;;;;;;7.78;100.00;97873.56;4863159;29;20207;-51
2022/10/03 06:21:46;;;;;;;12.23;11.03;;;;;;;7.88;100.00;97876.13;4863964;29;20274;-49
2022/10/03 06:24:35;;;;;;;9.30;8.47;;;;;;;7.97;100.00;97878.72;4825479;29;20243;-50
2022/10/03 06:27:51;;;;;;;9.00;8.10;;;;;;;8.01;100.00;97881.06;4866774;29;20201;-48
2022/10/03 06:30:21;;;;;;;10.37;7.90;;;;;;;8.07;100.00;97889.19;4842670;29;21302;-49
2022/10/03 06:33:31;;;;;;;13.17;8.20;;;;;;;8.19;100.00;97899.53;4867080;29;20559;-53
2022/10/03 06:36:29;;;;;;;9.07;8.03;;;;;;;8.24;100.00;97889.34;4813149;29;20379;-53
2022/10/03 06:39:43;;;;;;;12.10;7.33;;;;;;;8.32;100.00;97897.31;4770764;29;20222;-48
2022/10/03 06:42:46;;;;;;;11.93;7.77;;;;;;;8.51;100.00;97892.88;4812987;29;20249;-48
2022/10/03 06:45:41;;;;;;;9.73;7.50;;;;;;;8.56;100.00;97900.34;4804981;29;23114;-56
2022/10/03 06:48:28;;;;;;;7.97;7.13;;;;;;;8.63;100.00;97901.38;4828252;29;20213;-51
2022/10/03 06:51:09;;;;;;;9.83;7.60;;;;;;;8.72;100.00;97895.19;4830921;29;21176;-50
2022/10/03 06:53:49;;;;;;;7.30;6.70;;;;;;;8.78;100.00;97902.50;4829558;29;22106;-54
2022/10/03 06:57:02;;;;;;;8.53;7.83;;;;;;;8.77;100.00;97907.94;4788702;29;20229;-49
2022/10/03 06:59:49;;;;;;;15.93;10.70;;;;;;;8.90;100.00;97900.44;4808192;29;20884;-48
2022/10/03 07:02:34;;;;;;;8.77;7.83;;;;;;;9.02;100.00;97898.34;4825557;29;20226;-51
2022/10/03 07:05:34;;;;;;;7.47;6.93;;;;;;;9.10;100.00;97908.13;4817557;29;21577;-47
2022/10/03 07:08:47;;;;;;;7.97;7.23;;;;;;;9.22;100.00;97908.72;4828012;29;21464;-51
2022/10/03 07:11:33;;;;;;;9.80;7.33;;;;;;;9.27;100.00;97909.88;4775061;28;20274;-52
2022/10/03 07:14:27;;;;;;;8.53;7.67;;;;;;;9.42;100.00;97911.94;4894438;28;20938;-53
2022/10/03 07:17:27;;;;;;;12.17;7.07;;;;;;;9.47;100.00;97914.09;4870103;28;20230;-56
2022/10/03 07:20:23;;;;;;;8.17;7.37;;;;;;;9.65;100.00;97920.13;4880305;28;20214;-53
2022/10/03 07:23:25;;;;;;;7.47;6.83;;;;;;;9.68;100.00;97921.66;4970606;28;20219;-53
2022/10/03 07:26:27;;;;;;;9.77;6.07;;;;;;;9.78;100.00;97927.63;4933645;28;20235;-54
2022/10/03 07:29:13;;;;;;;6.90;6.20;;;;;;;9.82;100.00;97925.47;4969943;28;20204;-52
2022/10/03 07:31:54;;;;;;;9.57;6.67;;;;;;;9.93;100.00;97930.47;4930115;28;20205;-53
2022/10/03 07:34:58;;;;;;;11.67;6.67;;;;;;;10.01;100.00;97932.31;4970950;28;20309;-55
2022/10/03 07:40:59;;;;;;;6.77;5.97;;;;;;;10.48;100.00;97938.88;4968847;28;20200;-53
2022/10/03 07:43:55;;;;;;;7.13;5.87;;;;;;;10.49;100.00;97942.34;4928906;28;20229;-52
2022/10/03 07:47:17;;;;;;;9.50;6.37;;;;;;;10.57;100.00;97940.50;4949503;28;20329;-56
2022/10/03 07:50:18;;;;;;;8.77;5.47;;;;;;;10.73;100.00;97946.81;4883194;28;20222;-56
2022/10/03 07:53:07;;;;;;;7.57;5.53;;;;;;;10.91;100.00;97949.31;4889297;28;20212;-55
2022/10/03 07:55:59;;;;;;;5.93;5.03;;;;;;;10.96;100.00;97954.09;4890628;28;21137;-54
2022/10/03 07:58:45;;;;;;;6.83;5.13;;;;;;;11.26;100.00;97947.25;4811841;28;20418;-56
2022/10/03 08:01:29;;;;;;;8.23;5.13;;;;;;;11.12;100.00;97937.31;4888231;28;21696;-53
2022/10/03 08:04:32;;;;;;;5.60;4.93;;;;;;;10.85;100.00;97934.88;4868201;28;20227;-54
2022/10/03 08:07:11;;;;;;;5.37;4.50;;;;;;;10.65;100.00;97930.94;4813945;29;20975;-57
2022/10/03 08:09:58;;;;;;;7.17;4.70;;;;;;;10.52;100.00;97931.44;4812521;29;20309;-56
2022/10/03 08:12:48;;;;;;;6.07;4.50;;;;;;;11.00;100.00;97924.44;4812477;29;20206;-56
2022/10/03 08:15:25;;;;;;;10.87;4.43;;;;;;;11.17;100.00;97924.38;4813997;29;20230;-56
2022/10/03 08:18:05;;;;;;;7.47;4.47;;;;;;;11.44;100.00;97915.22;4812272;29;20206;-58
2022/10/03 08:20:54;;;;;;;3.77;3.40;;;;;;;11.47;100.00;97910.56;4795545;29;20223;-56
2022/10/03 08:23:45;;;;;;;5.77;3.30;;;;;;;11.61;100.00;97915.13;4815351;29;20237;-54
2022/10/03 08:26:19;;;;;;;3.73;3.30;;;;;;;11.64;100.00;97908.66;4880505;28;21383;-54
2022/10/03 08:29:01;;;;;;;5.37;4.10;;;;;;;11.57;100.00;97905.84;4851396;28;20214;-57
2022/10/03 08:31:59;;;;;;;6.03;3.73;;;;;;;11.73;100.00;97903.13;4888302;28;20218;-56
2022/10/03 08:35:02;;;;;;;6.60;3.33;;;;;;;11.79;100.00;97898.94;4868836;28;20241;-58
2022/10/03 08:37:58;;;;;;;3.47;3.17;;;;;;;11.90;100.00;97899.53;4887009;28;20214;-57
2022/10/03 08:41:00;;;;;;;6.70;3.40;;;;;;;12.07;100.00;97908.28;4887873;28;20217;-59
2022/10/03 08:44:01;;;;;;;5.33;3.40;;;;;;;12.07;100.00;97913.59;4945093;28;21081;-55
2022/10/03 08:47:00;;;;;;;5.93;3.87;;;;;;;12.38;100.00;97905.59;4904572;28;20209;-57
2022/10/03 08:49:59;;;;;;;7.43;2.83;;;;;;;12.35;100.00;97905.09;4968773;28;20699;-56
2022/10/03 08:52:42;;;;;;;4.67;2.47;;;;;;;12.49;100.00;97911.47;4961438;28;20214;-54
2022/10/03 08:55:31;;;;;;;7.20;2.97;;;;;;;12.36;100.00;97912.06;4969475;28;20227;-54
2022/10/03 08:58:15;;;;;;;6.90;2.90;;;;;;;12.28;100.00;97913.78;4968137;28;21390;-54
2022/10/03 09:01:03;;;;;;;4.80;2.70;;;;;;;12.65;99.40;97907.88;4913221;28;20659;-56
2022/10/03 09:04:03;;;;;;;4.83;2.93;;;;;;;13.06;91.09;97898.66;4968482;28;20236;-51
2022/10/03 09:07:15;;;;;;;7.40;2.53;;;;;;;13.65;87.80;97905.84;4909603;28;21284;-51
2022/10/03 09:10:07;;;;;;;5.72;2.95;;;;;;;13.65;87.97;97903.19;4886894;28;20471;-54
2022/10/03 09:13:02;;;;;;;4.40;2.40;;;;;;;13.58;86.54;97896.94;4888490;28;20214;-51
2022/10/03 09:16:24;;;;;;;4.17;2.43;;;;;;;13.31;85.29;97902.72;4887852;28;20304;-52
2022/10/03 09:19:03;;;;;;;6.30;2.73;;;;;;;13.43;87.57;97907.59;4859454;29;20216;-55
2022/10/03 09:21:44;;;;;;;3.20;1.90;;;;;;;13.34;81.57;97906.00;4841906;29;20295;-54
2022/10/03 09:25:14;;;;;;;4.10;2.30;;;;;;;13.20;80.00;97913.81;4868008;29;20238;-55
2022/10/03 09:28:16;;;;;;;4.80;2.00;;;;;;;13.02;78.90;97908.84;4862792;29;20260;-53
2022/10/03 09:30:53;;;;;;;2.57;1.87;;;;;;;13.57;79.66;97916.59;4866100;29;20201;-51
2022/10/03 09:33:59;;;;;;;5.27;2.47;;;;;;;13.60;77.09;97911.72;4828678;29;20215;-54
2022/10/03 09:37:10;;;;;;;2.97;1.93;;;;;;;13.36;78.00;97910.16;4848711;29;20967;-55
2022/10/03 09:40:14;;;;;;;2.30;1.90;;;;;;;13.27;79.07;97906.75;4846390;29;20223;-51
2022/10/03 09:43:16;;;;;;;4.70;2.20;;;;;;;12.57;80.66;97916.72;4866409;29;20208;-54
2022/10/03 09:46:20;;;;;;;3.63;2.87;;;;;;;12.75;81.21;97921.72;4885232;28;20226;-56
2022/10/03 09:49:18;;;;;;;4.80;2.40;;;;;;;12.94;79.12;97915.06;4871098;28;21119;-57
2022/10/03 09:51:56;;;;;;;4.03;2.00;;;;;;;13.31;79.44;97925.84;4968508;28;20374;-56
2022/10/03 09:54:52;;;;;;;3.57;1.93;;;;;;;13.22;78.68;97921.59;4945287;28;20370;-57
2022/10/03 10:00:21;;;;;;;5.20;2.07;;;;;;;12.74;78.20;97914.75;5496323;23;20319;-62
2022/10/03 10:03:15;;;;;;;2.30;1.70;;;;;;;12.76;78.27;97907.44;4950383;28;20205;-62
2022/10/03 10:06:05;;;;;;;2.07;1.93;;;;;;;12.75;78.04;97924.38;4913335;28;20220;-63
2022/10/03 10:09:03;;;;;;;3.27;1.80;;;;;;;12.81;76.77;97920.19;4891036;28;20684;-63
2022/10/03 10:12:03;;;;;;;2.07;1.87;;;;;;;12.83;77.63;97921.66;4923344;28;20213;-66
2022/10/03 10:14:48;;;;;;;4.30;2.67;;;;;;;12.83;77.66;97926.16;4916475;28;20862;-63
2022/10/03 10:17:55;;;;;;;2.73;1.90;;;;;;;12.83;78.44;97919.00;4932638;28;20374;-62
2022/10/03 10:21:14;;;;;;;2.83;2.60;;;;;;;13.49;77.62;97924.69;4890941;28;20866;-62
2022/10/03 10:23:53;;;;;;;1.87;1.77;;;;;;;14.04;75.54;97927.81;4837744;29;20755;-63
2022/10/03 10:29:47;;;;;;;5.83;2.10;;;;;;;13.67;71.05;97937.59;5643854;23;20256;-61
2022/10/03 10:33:00;;;;;;;5.20;2.30;;;;;;;13.67;71.95;97925.13;4914864;28;20225;-63
2022/10/03 10:35:56;;;;;;;3.03;2.03;;;;;;;13.64;72.73;97930.00;4935060;28;20210;-63
2022/10/03 10:38:34;;;;;;;3.20;2.50;;;;;;;13.78;73.17;97925.66;4882228;28;20597;-63
2022/10/03 10:41:44;;;;;;;3.10;1.77;;;;;;;13.51;74.16;97926.16;4910357;28;20342;-62
2022/10/03 10:44:41;;;;;;;2.97;2.17;;;;;;;13.67;72.46;97921.63;4891233;28;20222;-62
2022/10/03 10:47:47;;;;;;;4.47;1.87;;;;;;;13.87;71.88;97929.88;4907307;28;21653;-62
2022/10/03 10:50:54;;;;;;;4.10;2.13;;;;;;;13.69;71.67;97932.91;4909742;28;20228;-61
2022/10/03 10:53:59;;;;;;;3.30;1.90;;;;;;;13.47;72.18;97919.56;4874452;28;20221;-63
2022/10/03 10:57:03;;;;;;;2.40;2.20;;;;;;;13.41;72.48;97917.56;4879637;28;20241;-64
2022/10/03 11:00:14;;;;;;;3.47;2.30;;;;;;;13.58;72.75;97926.22;4907027;28;20404;-65
2022/10/03 11:03:24;;;;;;;3.40;2.13;;;;;;;13.77;72.35;97929.34;4826176;29;20216;-62
2022/10/03 11:06:23;;;;;;;2.77;1.80;;;;;;;14.40;70.80;97929.63;4788772;29;20236;-64
2022/10/03 11:09:41;;;;;;;2.20;1.70;;;;;;;14.40;69.31;97923.47;4762169;29;20242;-62
2022/10/03 11:12:59;;;;;;;3.23;1.90;;;;;;;14.25;69.53;97921.66;4734468;29;20307;-63
2022/10/03 11:16:04;;;;;;;3.10;2.20;;;;;;;14.24;70.06;97921.88;4718607;29;21038;-64
2022/10/03 11:19:17;;;;;;;3.27;2.87;;;;;;;14.42;70.24;97927.59;4734821;29;21087;-64
2022/10/03 11:22:39;;;;;;;4.00;2.45;;;;;;;14.74;69.94;97925.44;4735685;29;20493;-63
2022/10/03 11:26:07;;;;;;;3.80;2.30;;;;;;;14.76;69.13;97933.22;4736223;29;20232;-62
2022/10/03 11:29:28;;;;;;;3.53;2.13;;;;;;;14.57;68.56;97924.00;4676406;30;20993;-62
2022/10/03 11:35:33;;;;;;;4.13;2.03;;;;;;;14.98;67.37;97918.03;4641628;30;20223;-63
2022/10/03 11:38:07;;;;;;;1.90;1.80;;;;;;;14.89;67.29;97927.19;4685269;29;20393;-65
2022/10/03 11:40:44;;;;;;;3.73;1.80;;;;;;;14.59;67.54;97932.69;4690940;29;20232;-62
2022/10/03 11:43:48;;;;;;;5.77;2.00;;;;;;;14.74;67.96;97932.59;4769366;29;20223;-64
2022/10/03 11:46:26;;;;;;;2.73;1.30;;;;;;;14.50;68.31;97934.63;4715260;29;20230;-65
2022/10/03 11:48:59;;;;;;;2.33;2.07;;;;;;;14.25;68.30;97926.19;4776987;29;20660;-66
2022/10/03 11:51:37;;;;;;;3.23;1.77;;;;;;;14.47;68.63;97924.34;4782313;29;20940;-63
2022/10/03 11:54:16;;;;;;;3.30;1.97;;;;;;;15.00;67.23;97918.66;4727243;29;20223;-63
2022/10/03 11:57:01;;;;;;;3.67;1.57;;;;;;;15.42;64.63;97916.03;4776943;29;20897;-60
2022/10/03 11:59:46;;;;;;;3.30;1.80;;;;;;;15.29;63.72;97919.44;4775231;29;20957;-62
2022/10/03 12:02:27;;;;;;;1.97;1.40;;;;;;;15.28;64.97;97917.81;4804629;29;20214;-62
2022/10/03 12:04:58;;;;;;;6.70;1.83;;;;;;;15.33;65.15;97912.69;4885190;28;20269;-65
2022/10/03 12:10:37;;;;;;;3.37;2.03;;;;;;;15.61;64.07;97916.34;4892594;28;20980;-64
2022/10/03 12:13:13;;;;;;;2.10;1.50;;;;;;;15.30;63.77;97910.41;4923910;28;20230;-64
2022/10/03 12:15:45;;;;;;;2.63;1.80;;;;;;;15.05;64.41;97916.25;4927539;28;20220;-66
2022/10/03 12:18:19;;;;;;;3.57;1.90;;;;;;;14.58;66.15;97915.84;4909105;28;20357;-63
2022/10/03 12:21:06;;;;;;;2.80;1.50;;;;;;;14.58;66.20;97921.16;4925697;28;20224;-64
2022/10/03 12:23:57;;;;;;;3.67;1.93;;;;;;;14.44;65.83;97920.22;4926731;28;20213;-64
2022/10/03 12:26:32;;;;;;;3.30;1.83;;;;;;;13.88;67.15;97924.38;4838392;28;20882;-63
2022/10/03 12:29:01;;;;;;;6.30;2.50;;;;;;;13.51;69.13;97915.50;4922630;28;20236;-63
2022/10/03 12:31:34;;;;;;;2.00;1.80;;;;;;;13.25;69.76;97918.56;4915823;28;20214;-64
2022/10/03 12:34:31;;;;;;;3.90;2.37;;;;;;;13.12;71.07;97916.56;4925502;28;20312;-61
2022/10/03 12:37:10;;;;;;;2.27;1.93;;;;;;;12.84;71.00;97904.69;4905937;28;20214;-64
2022/10/03 12:39:45;;;;;;;1.83;1.63;;;;;;;12.64;72.48;97909.69;4926982;28;20229;-65
2022/10/03 12:42:25;;;;;;;1.87;1.70;;;;;;;12.73;73.88;97908.63;4882103;28;20228;-63
2022/10/03 12:44:58;;;;;;;3.33;2.00;;;;;;;12.77;74.24;97900.28;4923505;28;20221;-62
2022/10/03 12:47:44;;;;;;;3.60;2.40;;;;;;;12.78;74.65;97907.25;4924783;28;20841;-63
2022/10/03 12:50:39;;;;;;;4.77;2.63;;;;;;;12.95;74.04;97903.44;4927007;28;21250;-63
2022/10/03 12:53:37;;;;;;;3.77;2.50;;;;;;;13.58;73.97;97911.09;4905589;28;20854;-62
2022/10/03 12:56:11;;;;;;;4.13;3.33;;;;;;;14.40;71.96;97904.81;4922855;28;20221;-63
2022/10/03 12:58:51;;;;;;;1.90;1.80;;;;;;;14.98;68.72;97893.19;4883315;28;21002;-63
2022/10/03 13:01:27;;;;;;;2.50;2.30;;;;;;;14.60;68.60;97881.00;4923644;28;20397;-62
2022/10/03 13:03:58;;;;;;;3.53;2.17;;;;;;;14.50;70.17;97904.47;4925946;28;20826;-62
2022/10/03 13:06:37;;;;;;;3.73;2.00;;;;;;;14.21;69.84;97899.09;4924971;28;20857;-64
2022/10/03 13:09:45;;;;;;;4.10;2.80;;;;;;;14.31;70.20;97901.44;4912986;28;20261;-63
2022/10/03 13:12:20;;;;;;;3.00;2.37;;;;;;;14.31;70.16;97901.44;4880393;28;20775;-62
2022/10/03 13:15:40;;;;;;;3.00;1.87;;;;;;;14.33;68.83;97902.88;4924866;28;20214;-65
2022/10/03 13:18:19;;;;;;;1.40;1.20;;;;;;;14.06;67.25;97903.66;4922431;28;20210;-62
2022/10/03 13:20:55;;;;;;;4.20;1.87;;;;;;;14.54;65.81;97895.91;4926835;28;20728;-61
2022/10/03 13:23:35;;;;;;;3.43;2.67;;;;;;;14.84;63.98;97881.59;4904516;28;20385;-62
2022/10/03 13:26:08;;;;;;;2.10;1.60;;;;;;;16.14;62.13;97880.16;4925317;28;20232;-61
2022/10/03 13:28:58;;;;;;;2.33;1.53;;;;;;;19.07;55.68;97874.97;4883786;28;20244;-61